Accueil
METAR-TAF:

METAR-TAF

Aéroports :

Aéroport international de Sunan

Pyongyang, Corée du Nord

latitude: 39-02N, longitude: 125-47E, altitude: 36 m

METAR: absent

Heure: 10:54 (02:24 UTC)

Prévision

Le bulletin a été fait il y a 5 heures et 29 minutes, à 20:55 UTC
Prévision valable du 19 à 00 UTC au 19 à 24 UTC
Vent 8 kt de sud
Visibilité 10 km ou plus
Ciel couvert à une hauteur de 3000 ft

TAF: ZKPY 182055Z 1900/1924 17004MPS 9999 OVC030 TX29/1906Z TN23/1921Z

Observations et prévisions météorologiques de plus de 4000 aéroports (messages METAR et TAF).

Les stations disponibles sont représentées par des disques jaunes et rouges sur la carte.

Passer la souris dessus pour voir le nom de la station.

Cliquer dessus pour voir les observations et prévisions météorologiques.

Pour changer de carte: cliquez sur les boutons verts avec une croix noire pour zoomer, sur le bouton vert avec un tiret pour effectuer un zoom arrière, ou sur les flèches vertes pour les cartes adjacentes.


METAR-TAF: